sensor_id;sensor_type;location;lat;lon;timestamp;temperature;humidity
56512;DHT22;42408;53.238;5.686;2023-04-25T00:02:03;7.20;99.90
56512;DHT22;42408;53.238;5.686;2023-04-25T00:04:29;7.20;99.90
56512;DHT22;42408;53.238;5.686;2023-04-25T00:06:55;7.30;99.90
56512;DHT22;42408;53.238;5.686;2023-04-25T00:09:24;7.20;99.90
56512;DHT22;42408;53.238;5.686;2023-04-25T00:11:49;7.20;99.90
56512;DHT22;42408;53.238;5.686;2023-04-25T00:14:15;7.20;99.90
56512;DHT22;42408;53.238;5.686;2023-04-25T00:16:42;7.20;99.90
56512;DHT22;42408;53.238;5.686;2023-04-25T00:19:09;7.20;99.90
56512;DHT22;42408;53.238;5.686;2023-04-25T00:21:35;7.20;99.90
56512;DHT22;42408;53.238;5.686;2023-04-25T00:24:03;7.20;99.90
56512;DHT22;42408;53.238;5.686;2023-04-25T00:26:30;7.10;99.90
56512;DHT22;42408;53.238;5.686;2023-04-25T00:28:55;7.20;99.90
56512;DHT22;42408;53.238;5.686;2023-04-25T00:31:22;7.10;99.90
56512;DHT22;42408;53.238;5.686;2023-04-25T00:33:47;7.10;99.90
56512;DHT22;42408;53.238;5.686;2023-04-25T00:36:13;7.10;99.90
56512;DHT22;42408;53.238;5.686;2023-04-25T00:38:40;7.00;99.90
56512;DHT22;42408;53.238;5.686;2023-04-25T00:41:07;7.00;99.90
56512;DHT22;42408;53.238;5.686;2023-04-25T00:43:32;7.20;99.90
56512;DHT22;42408;53.238;5.686;2023-04-25T00:46:00;7.10;99.90
56512;DHT22;42408;53.238;5.686;2023-04-25T00:48:26;7.10;99.90
56512;DHT22;42408;53.238;5.686;2023-04-25T00:50:57;7.00;99.90
56512;DHT22;42408;53.238;5.686;2023-04-25T00:53:24;7.10;99.90
56512;DHT22;42408;53.238;5.686;2023-04-25T00:55:51;7.20;99.90
56512;DHT22;42408;53.238;5.686;2023-04-25T00:58:18;7.10;99.90
56512;DHT22;42408;53.238;5.686;2023-04-25T01:00:47;7.10;99.90
56512;DHT22;42408;53.238;5.686;2023-04-25T01:03:17;7.00;99.90
56512;DHT22;42408;53.238;5.686;2023-04-25T01:05:45;7.00;99.90
56512;DHT22;42408;53.238;5.686;2023-04-25T01:08:12;7.00;99.90
56512;DHT22;42408;53.238;5.686;2023-04-25T01:10:38;7.00;99.90
56512;DHT22;42408;53.238;5.686;2023-04-25T01:13:04;6.90;99.90
56512;DHT22;42408;53.238;5.686;2023-04-25T01:15:30;6.90;99.90
56512;DHT22;42408;53.238;5.686;2023-04-25T01:17:56;6.80;99.90
56512;DHT22;42408;53.238;5.686;2023-04-25T01:20:22;6.80;99.90
56512;DHT22;42408;53.238;5.686;2023-04-25T01:22:52;6.80;99.90
56512;DHT22;42408;53.238;5.686;2023-04-25T01:25:18;6.70;99.90
56512;DHT22;42408;53.238;5.686;2023-04-25T01:27:45;6.60;99.90
56512;DHT22;42408;53.238;5.686;2023-04-25T01:30:11;6.60;99.90
56512;DHT22;42408;53.238;5.686;2023-04-25T01:32:37;6.50;99.90
56512;DHT22;42408;53.238;5.686;2023-04-25T01:35:07;6.50;99.90
56512;DHT22;42408;53.238;5.686;2023-04-25T01:37:41;6.50;99.90
56512;DHT22;42408;53.238;5.686;2023-04-25T01:40:08;6.50;99.90
56512;DHT22;42408;53.238;5.686;2023-04-25T01:42:36;6.50;99.90
56512;DHT22;42408;53.238;5.686;2023-04-25T01:45:02;6.50;99.90
56512;DHT22;42408;53.238;5.686;2023-04-25T01:47:28;6.50;99.90
56512;DHT22;42408;53.238;5.686;2023-04-25T01:49:54;6.50;99.90
56512;DHT22;42408;53.238;5.686;2023-04-25T01:52:20;6.50;99.90
56512;DHT22;42408;53.238;5.686;2023-04-25T01:54:46;6.50;99.90
56512;DHT22;42408;53.238;5.686;2023-04-25T01:57:12;6.50;99.90
56512;DHT22;42408;53.238;5.686;2023-04-25T01:59:38;6.40;99.90
56512;DHT22;42408;53.238;5.686;2023-04-25T02:02:03;6.40;99.90
56512;DHT22;42408;53.238;5.686;2023-04-25T02:04:30;6.40;99.90
56512;DHT22;42408;53.238;5.686;2023-04-25T02:06:56;6.30;99.90
56512;DHT22;42408;53.238;5.686;2023-04-25T02:09:22;6.40;99.90
56512;DHT22;42408;53.238;5.686;2023-04-25T02:11:48;6.40;99.90
56512;DHT22;42408;53.238;5.686;2023-04-25T02:14:13;6.30;99.90
56512;DHT22;42408;53.238;5.686;2023-04-25T02:16:39;6.30;99.90
56512;DHT22;42408;53.238;5.686;2023-04-25T02:19:05;6.30;99.90
56512;DHT22;42408;53.238;5.686;2023-04-25T02:21:32;6.30;99.90
56512;DHT22;42408;53.238;5.686;2023-04-25T02:23:58;6.30;99.90
56512;DHT22;42408;53.238;5.686;2023-04-25T02:26:24;6.30;99.90
56512;DHT22;42408;53.238;5.686;2023-04-25T02:28:50;6.30;99.90
56512;DHT22;42408;53.238;5.686;2023-04-25T02:31:16;6.30;99.90
56512;DHT22;42408;53.238;5.686;2023-04-25T02:33:42;6.30;99.90
56512;DHT22;42408;53.238;5.686;2023-04-25T02:36:08;6.30;99.90
56512;DHT22;42408;53.238;5.686;2023-04-25T02:38:34;6.30;99.90
56512;DHT22;42408;53.238;5.686;2023-04-25T02:40:59;6.30;99.90
56512;DHT22;42408;53.238;5.686;2023-04-25T02:43:25;6.30;99.90
56512;DHT22;42408;53.238;5.686;2023-04-25T02:45:51;6.30;99.90
56512;DHT22;42408;53.238;5.686;2023-04-25T02:48:17;6.30;99.90
56512;DHT22;42408;53.238;5.686;2023-04-25T02:50:42;6.30;99.90
56512;DHT22;42408;53.238;5.686;2023-04-25T02:53:08;6.40;99.90
56512;DHT22;42408;53.238;5.686;2023-04-25T02:55:34;6.40;99.90
56512;DHT22;42408;53.238;5.686;2023-04-25T02:57:59;6.40;99.90
56512;DHT22;42408;53.238;5.686;2023-04-25T03:00:25;6.40;99.90
56512;DHT22;42408;53.238;5.686;2023-04-25T03:02:51;6.50;99.90
56512;DHT22;42408;53.238;5.686;2023-04-25T03:05:17;6.40;99.90
56512;DHT22;42408;53.238;5.686;2023-04-25T03:07:43;6.50;99.90
56512;DHT22;42408;53.238;5.686;2023-04-25T03:10:10;6.50;99.90
56512;DHT22;42408;53.238;5.686;2023-04-25T03:12:36;6.50;99.90
56512;DHT22;42408;53.238;5.686;2023-04-25T03:15:02;6.50;99.90
56512;DHT22;42408;53.238;5.686;2023-04-25T03:17:28;6.50;99.90
56512;DHT22;42408;53.238;5.686;2023-04-25T03:19:54;6.50;99.90
56512;DHT22;42408;53.238;5.686;2023-04-25T03:22:19;6.40;99.90
56512;DHT22;42408;53.238;5.686;2023-04-25T03:24:45;6.40;99.90
56512;DHT22;42408;53.238;5.686;2023-04-25T03:27:11;6.30;99.90
56512;DHT22;42408;53.238;5.686;2023-04-25T03:29:36;6.30;99.90
56512;DHT22;42408;53.238;5.686;2023-04-25T03:32:02;6.30;99.90
56512;DHT22;42408;53.238;5.686;2023-04-25T03:34:27;6.30;99.90
56512;DHT22;42408;53.238;5.686;2023-04-25T03:36:54;6.30;99.90
56512;DHT22;42408;53.238;5.686;2023-04-25T03:39:19;6.30;99.90
56512;DHT22;42408;53.238;5.686;2023-04-25T03:41:45;6.30;99.90
56512;DHT22;42408;53.238;5.686;2023-04-25T03:44:10;6.30;99.90
56512;DHT22;42408;53.238;5.686;2023-04-25T03:46:36;6.30;99.90
56512;DHT22;42408;53.238;5.686;2023-04-25T03:49:02;6.20;99.90
56512;DHT22;42408;53.238;5.686;2023-04-25T03:51:27;6.20;99.90
56512;DHT22;42408;53.238;5.686;2023-04-25T03:53:53;6.30;99.90
56512;DHT22;42408;53.238;5.686;2023-04-25T03:56:19;6.10;99.90
56512;DHT22;42408;53.238;5.686;2023-04-25T03:58:45;6.10;99.90
56512;DHT22;42408;53.238;5.686;2023-04-25T04:01:11;6.10;99.90
56512;DHT22;42408;53.238;5.686;2023-04-25T04:03:36;6.10;99.90
56512;DHT22;42408;53.238;5.686;2023-04-25T04:06:03;6.10;99.90
56512;DHT22;42408;53.238;5.686;2023-04-25T04:08:29;6.10;99.90
56512;DHT22;42408;53.238;5.686;2023-04-25T04:10:56;6.10;99.90
56512;DHT22;42408;53.238;5.686;2023-04-25T04:13:22;6.10;99.90
56512;DHT22;42408;53.238;5.686;2023-04-25T04:15:48;6.10;99.90
56512;DHT22;42408;53.238;5.686;2023-04-25T04:18:13;6.10;99.90
56512;DHT22;42408;53.238;5.686;2023-04-25T04:20:39;6.10;99.90
56512;DHT22;42408;53.238;5.686;2023-04-25T04:23:05;6.10;99.90
56512;DHT22;42408;53.238;5.686;2023-04-25T04:25:31;6.30;99.90
56512;DHT22;42408;53.238;5.686;2023-04-25T04:27:56;6.10;99.90
56512;DHT22;42408;53.238;5.686;2023-04-25T04:30:23;6.10;99.90
56512;DHT22;42408;53.238;5.686;2023-04-25T04:32:55;6.10;99.90
56512;DHT22;42408;53.238;5.686;2023-04-25T04:35:22;6.10;99.90
56512;DHT22;42408;53.238;5.686;2023-04-25T04:37:47;6.10;99.90
56512;DHT22;42408;53.238;5.686;2023-04-25T04:40:14;6.10;99.90
56512;DHT22;42408;53.238;5.686;2023-04-25T04:42:42;6.10;99.90
56512;DHT22;42408;53.238;5.686;2023-04-25T04:45:08;6.10;99.90
56512;DHT22;42408;53.238;5.686;2023-04-25T04:47:34;6.10;99.90
56512;DHT22;42408;53.238;5.686;2023-04-25T04:50:03;6.10;99.90
56512;DHT22;42408;53.238;5.686;2023-04-25T04:52:29;6.10;99.90
56512;DHT22;42408;53.238;5.686;2023-04-25T04:54:55;6.10;99.90
56512;DHT22;42408;53.238;5.686;2023-04-25T04:57:21;6.10;99.90
56512;DHT22;42408;53.238;5.686;2023-04-25T04:59:46;6.30;99.90
56512;DHT22;42408;53.238;5.686;2023-04-25T05:02:12;6.10;99.90
56512;DHT22;42408;53.238;5.686;2023-04-25T05:04:37;6.10;99.90
56512;DHT22;42408;53.238;5.686;2023-04-25T05:07:03;6.00;99.90
56512;DHT22;42408;53.238;5.686;2023-04-25T05:09:29;6.10;99.90
56512;DHT22;42408;53.238;5.686;2023-04-25T05:11:55;6.10;99.90
56512;DHT22;42408;53.238;5.686;2023-04-25T05:14:21;6.10;99.90
56512;DHT22;42408;53.238;5.686;2023-04-25T05:16:48;6.20;99.90
56512;DHT22;42408;53.238;5.686;2023-04-25T05:19:13;6.30;99.90
56512;DHT22;42408;53.238;5.686;2023-04-25T05:21:39;6.40;99.90
56512;DHT22;42408;53.238;5.686;2023-04-25T05:24:05;6.60;99.90
56512;DHT22;42408;53.238;5.686;2023-04-25T05:26:30;6.60;99.90
56512;DHT22;42408;53.238;5.686;2023-04-25T05:28:59;6.80;99.90
56512;DHT22;42408;53.238;5.686;2023-04-25T05:31:25;6.80;99.90
56512;DHT22;42408;53.238;5.686;2023-04-25T05:33:51;6.80;99.90
56512;DHT22;42408;53.238;5.686;2023-04-25T05:36:20;6.70;99.90
56512;DHT22;42408;53.238;5.686;2023-04-25T05:38:46;6.70;99.90
56512;DHT22;42408;53.238;5.686;2023-04-25T05:41:12;6.70;99.90
56512;DHT22;42408;53.238;5.686;2023-04-25T05:43:38;6.70;99.90
56512;DHT22;42408;53.238;5.686;2023-04-25T05:46:03;6.60;99.90
56512;DHT22;42408;53.238;5.686;2023-04-25T05:48:29;6.40;99.90
56512;DHT22;42408;53.238;5.686;2023-04-25T05:50:55;6.40;99.90
56512;DHT22;42408;53.238;5.686;2023-04-25T05:53:21;6.30;99.90
56512;DHT22;42408;53.238;5.686;2023-04-25T05:55:47;6.10;99.90
56512;DHT22;42408;53.238;5.686;2023-04-25T05:58:13;6.00;99.90
56512;DHT22;42408;53.238;5.686;2023-04-25T06:00:38;6.00;99.90
56512;DHT22;42408;53.238;5.686;2023-04-25T06:03:06;6.20;99.90
56512;DHT22;42408;53.238;5.686;2023-04-25T06:05:35;6.10;99.90
56512;DHT22;42408;53.238;5.686;2023-04-25T06:08:01;6.20;99.90
56512;DHT22;42408;53.238;5.686;2023-04-25T06:10:26;6.30;99.90
56512;DHT22;42408;53.238;5.686;2023-04-25T06:12:52;6.50;99.90
56512;DHT22;42408;53.238;5.686;2023-04-25T06:15:18;6.70;99.90
56512;DHT22;42408;53.238;5.686;2023-04-25T06:17:43;6.90;99.90
56512;DHT22;42408;53.238;5.686;2023-04-25T06:20:09;6.80;99.90
56512;DHT22;42408;53.238;5.686;2023-04-25T06:22:35;6.90;99.90
56512;DHT22;42408;53.238;5.686;2023-04-25T06:25:01;7.60;99.90
56512;DHT22;42408;53.238;5.686;2023-04-25T06:27:29;9.20;99.90
56512;DHT22;42408;53.238;5.686;2023-04-25T06:29:55;10.30;99.90
56512;DHT22;42408;53.238;5.686;2023-04-25T06:32:20;10.40;99.90
56512;DHT22;42408;53.238;5.686;2023-04-25T06:34:46;9.80;99.90
56512;DHT22;42408;53.238;5.686;2023-04-25T06:37:12;9.30;99.90
56512;DHT22;42408;53.238;5.686;2023-04-25T06:39:37;9.00;99.90
56512;DHT22;42408;53.238;5.686;2023-04-25T06:42:03;8.70;99.90
56512;DHT22;42408;53.238;5.686;2023-04-25T06:44:28;8.50;99.90
56512;DHT22;42408;53.238;5.686;2023-04-25T06:46:55;8.30;99.90
56512;DHT22;42408;53.238;5.686;2023-04-25T06:49:20;8.30;99.90
56512;DHT22;42408;53.238;5.686;2023-04-25T06:51:46;8.20;99.90
56512;DHT22;42408;53.238;5.686;2023-04-25T06:54:12;8.20;99.90
56512;DHT22;42408;53.238;5.686;2023-04-25T06:56:37;8.20;99.90
56512;DHT22;42408;53.238;5.686;2023-04-25T06:59:03;8.20;99.90
56512;DHT22;42408;53.238;5.686;2023-04-25T07:01:28;8.10;99.90
56512;DHT22;42408;53.238;5.686;2023-04-25T07:03:54;8.10;99.90
56512;DHT22;42408;53.238;5.686;2023-04-25T07:06:20;8.10;99.90
56512;DHT22;42408;53.238;5.686;2023-04-25T07:08:45;8.20;99.90
56512;DHT22;42408;53.238;5.686;2023-04-25T07:11:11;8.10;99.90
56512;DHT22;42408;53.238;5.686;2023-04-25T07:13:37;8.20;99.90
56512;DHT22;42408;53.238;5.686;2023-04-25T07:16:02;8.20;99.90
56512;DHT22;42408;53.238;5.686;2023-04-25T07:18:28;8.70;99.90
56512;DHT22;42408;53.238;5.686;2023-04-25T07:20:54;9.20;99.90
56512;DHT22;42408;53.238;5.686;2023-04-25T07:23:20;9.80;99.90
56512;DHT22;42408;53.238;5.686;2023-04-25T07:25:46;10.20;99.90
56512;DHT22;42408;53.238;5.686;2023-04-25T07:28:11;10.40;99.90
56512;DHT22;42408;53.238;5.686;2023-04-25T07:30:37;10.50;99.90
56512;DHT22;42408;53.238;5.686;2023-04-25T07:33:03;10.70;99.90
56512;DHT22;42408;53.238;5.686;2023-04-25T07:35:28;10.90;99.90
56512;DHT22;42408;53.238;5.686;2023-04-25T07:37:54;11.30;99.90
56512;DHT22;42408;53.238;5.686;2023-04-25T07:40:20;11.60;99.90
56512;DHT22;42408;53.238;5.686;2023-04-25T07:42:46;11.90;99.90
56512;DHT22;42408;53.238;5.686;2023-04-25T07:45:12;12.10;99.90
56512;DHT22;42408;53.238;5.686;2023-04-25T07:47:38;12.50;99.90
56512;DHT22;42408;53.238;5.686;2023-04-25T07:50:04;13.00;99.90
56512;DHT22;42408;53.238;5.686;2023-04-25T07:52:30;13.20;99.90
56512;DHT22;42408;53.238;5.686;2023-04-25T07:54:55;13.40;99.90
56512;DHT22;42408;53.238;5.686;2023-04-25T07:57:23;13.70;99.90
56512;DHT22;42408;53.238;5.686;2023-04-25T07:59:49;13.80;99.90
56512;DHT22;42408;53.238;5.686;2023-04-25T08:02:15;13.60;99.90
56512;DHT22;42408;53.238;5.686;2023-04-25T08:04:41;13.50;99.90
56512;DHT22;42408;53.238;5.686;2023-04-25T08:07:06;13.30;99.90
56512;DHT22;42408;53.238;5.686;2023-04-25T08:09:32;13.30;99.90
56512;DHT22;42408;53.238;5.686;2023-04-25T08:12:01;13.10;99.90
56512;DHT22;42408;53.238;5.686;2023-04-25T08:14:27;13.00;99.90
56512;DHT22;42408;53.238;5.686;2023-04-25T08:16:54;12.80;99.90
56512;DHT22;42408;53.238;5.686;2023-04-25T08:19:19;12.50;99.90
56512;DHT22;42408;53.238;5.686;2023-04-25T08:21:45;12.30;99.90
56512;DHT22;42408;53.238;5.686;2023-04-25T08:24:11;12.30;99.90
56512;DHT22;42408;53.238;5.686;2023-04-25T08:26:36;12.20;99.90
56512;DHT22;42408;53.238;5.686;2023-04-25T08:29:03;11.80;99.90
56512;DHT22;42408;53.238;5.686;2023-04-25T08:31:29;11.60;99.90
56512;DHT22;42408;53.238;5.686;2023-04-25T08:33:55;11.80;99.90
56512;DHT22;42408;53.238;5.686;2023-04-25T08:36:21;12.00;99.90
56512;DHT22;42408;53.238;5.686;2023-04-25T08:38:46;12.30;99.90
56512;DHT22;42408;53.238;5.686;2023-04-25T08:41:13;12.50;99.90
56512;DHT22;42408;53.238;5.686;2023-04-25T08:43:42;12.70;99.90
56512;DHT22;42408;53.238;5.686;2023-04-25T08:46:09;12.80;99.90
56512;DHT22;42408;53.238;5.686;2023-04-25T08:48:35;13.00;99.90
56512;DHT22;42408;53.238;5.686;2023-04-25T08:51:02;13.20;99.90
56512;DHT22;42408;53.238;5.686;2023-04-25T08:53:32;13.40;99.90
56512;DHT22;42408;53.238;5.686;2023-04-25T08:56:00;13.50;99.90
56512;DHT22;42408;53.238;5.686;2023-04-25T08:58:29;13.30;99.90
56512;DHT22;42408;53.238;5.686;2023-04-25T09:00:55;13.00;99.90
56512;DHT22;42408;53.238;5.686;2023-04-25T09:03:20;13.00;99.90
56512;DHT22;42408;53.238;5.686;2023-04-25T09:05:46;12.80;99.90
56512;DHT22;42408;53.238;5.686;2023-04-25T09:08:12;12.70;99.90
56512;DHT22;42408;53.238;5.686;2023-04-25T09:10:38;12.50;99.90
56512;DHT22;42408;53.238;5.686;2023-04-25T09:13:06;12.30;99.90
56512;DHT22;42408;53.238;5.686;2023-04-25T09:15:32;12.20;99.90
56512;DHT22;42408;53.238;5.686;2023-04-25T09:18:01;12.30;99.90
56512;DHT22;42408;53.238;5.686;2023-04-25T09:20:26;12.30;99.90
56512;DHT22;42408;53.238;5.686;2023-04-25T09:23:04;12.40;99.90
56512;DHT22;42408;53.238;5.686;2023-04-25T09:25:36;12.30;99.90
56512;DHT22;42408;53.238;5.686;2023-04-25T09:28:05;12.30;99.90
56512;DHT22;42408;53.238;5.686;2023-04-25T09:30:34;12.20;99.90
56512;DHT22;42408;53.238;5.686;2023-04-25T09:33:10;12.10;99.90
56512;DHT22;42408;53.238;5.686;2023-04-25T09:35:37;12.00;99.90
56512;DHT22;42408;53.238;5.686;2023-04-25T09:38:11;12.00;99.90
56512;DHT22;42408;53.238;5.686;2023-04-25T09:40:42;12.10;99.90
56512;DHT22;42408;53.238;5.686;2023-04-25T09:43:26;12.10;99.90
56512;DHT22;42408;53.238;5.686;2023-04-25T09:45:54;12.20;99.90
56512;DHT22;42408;53.238;5.686;2023-04-25T09:48:25;12.30;99.90
56512;DHT22;42408;53.238;5.686;2023-04-25T09:51:17;12.40;99.90
56512;DHT22;42408;53.238;5.686;2023-04-25T09:53:45;12.40;99.90
56512;DHT22;42408;53.238;5.686;2023-04-25T09:56:12;12.30;99.90
56512;DHT22;42408;53.238;5.686;2023-04-25T09:58:40;12.30;99.90
56512;DHT22;42408;53.238;5.686;2023-04-25T10:01:07;12.20;99.90
56512;DHT22;42408;53.238;5.686;2023-04-25T10:03:36;12.40;99.90
56512;DHT22;42408;53.238;5.686;2023-04-25T10:06:04;12.50;99.90
56512;DHT22;42408;53.238;5.686;2023-04-25T10:08:35;12.70;99.90
56512;DHT22;42408;53.238;5.686;2023-04-25T10:11:06;12.90;99.90
56512;DHT22;42408;53.238;5.686;2023-04-25T10:13:33;13.10;99.90
56512;DHT22;42408;53.238;5.686;2023-04-25T10:16:01;13.30;99.90
56512;DHT22;42408;53.238;5.686;2023-04-25T10:18:29;13.40;99.90
56512;DHT22;42408;53.238;5.686;2023-04-25T10:20:57;13.60;99.90
56512;DHT22;42408;53.238;5.686;2023-04-25T10:23:24;13.80;99.90
56512;DHT22;42408;53.238;5.686;2023-04-25T10:25:53;13.70;99.90
56512;DHT22;42408;53.238;5.686;2023-04-25T10:28:20;13.40;99.90
56512;DHT22;42408;53.238;5.686;2023-04-25T10:36:14;12.10;99.90
56512;DHT22;42408;53.238;5.686;2023-04-25T10:38:42;11.70;99.90
56512;DHT22;42408;53.238;5.686;2023-04-25T10:41:09;11.50;99.90
56512;DHT22;42408;53.238;5.686;2023-04-25T10:43:43;11.50;99.90
56512;DHT22;42408;53.238;5.686;2023-04-25T10:46:25;11.50;99.90
56512;DHT22;42408;53.238;5.686;2023-04-25T10:48:54;11.50;99.90
56512;DHT22;42408;53.238;5.686;2023-04-25T10:51:25;11.70;99.90
56512;DHT22;42408;53.238;5.686;2023-04-25T10:56:22;12.30;99.90
56512;DHT22;42408;53.238;5.686;2023-04-25T10:58:48;12.70;99.90
56512;DHT22;42408;53.238;5.686;2023-04-25T11:01:19;13.00;99.90
56512;DHT22;42408;53.238;5.686;2023-04-25T11:03:45;13.30;99.90
56512;DHT22;42408;53.238;5.686;2023-04-25T11:08:49;13.80;99.90
56512;DHT22;42408;53.238;5.686;2023-04-25T11:11:18;13.90;99.90
56512;DHT22;42408;53.238;5.686;2023-04-25T11:13:47;13.90;99.90
56512;DHT22;42408;53.238;5.686;2023-04-25T11:16:14;13.70;99.90
56512;DHT22;42408;53.238;5.686;2023-04-25T11:18:43;13.70;99.90
56512;DHT22;42408;53.238;5.686;2023-04-25T11:21:09;13.60;99.90
56512;DHT22;42408;53.238;5.686;2023-04-25T11:23:35;13.30;99.90
56512;DHT22;42408;53.238;5.686;2023-04-25T11:26:02;13.10;99.90
56512;DHT22;42408;53.238;5.686;2023-04-25T11:28:28;13.10;99.90
56512;DHT22;42408;53.238;5.686;2023-04-25T11:30:54;13.10;99.90
56512;DHT22;42408;53.238;5.686;2023-04-25T11:33:25;12.90;99.90
56512;DHT22;42408;53.238;5.686;2023-04-25T11:35:53;13.00;99.90
56512;DHT22;42408;53.238;5.686;2023-04-25T11:38:19;13.20;99.90
56512;DHT22;42408;53.238;5.686;2023-04-25T11:40:52;13.20;99.90
56512;DHT22;42408;53.238;5.686;2023-04-25T11:43:22;13.30;99.90
56512;DHT22;42408;53.238;5.686;2023-04-25T11:45:50;13.60;99.90
56512;DHT22;42408;53.238;5.686;2023-04-25T11:48:20;13.70;99.90
56512;DHT22;42408;53.238;5.686;2023-04-25T11:50:46;13.90;99.90
56512;DHT22;42408;53.238;5.686;2023-04-25T11:53:12;13.90;99.90
56512;DHT22;42408;53.238;5.686;2023-04-25T11:55:38;13.90;99.90
56512;DHT22;42408;53.238;5.686;2023-04-25T11:58:05;13.60;99.90
56512;DHT22;42408;53.238;5.686;2023-04-25T12:00:31;13.40;99.90
56512;DHT22;42408;53.238;5.686;2023-04-25T12:02:57;13.40;99.90
56512;DHT22;42408;53.238;5.686;2023-04-25T12:05:25;13.50;99.90
56512;DHT22;42408;53.238;5.686;2023-04-25T12:07:51;13.60;99.90
56512;DHT22;42408;53.238;5.686;2023-04-25T12:10:18;13.80;99.90
56512;DHT22;42408;53.238;5.686;2023-04-25T12:12:45;13.80;99.90
56512;DHT22;42408;53.238;5.686;2023-04-25T12:17:41;13.80;99.90
56512;DHT22;42408;53.238;5.686;2023-04-25T12:20:12;13.80;99.90
56512;DHT22;42408;53.238;5.686;2023-04-25T12:22:39;13.90;99.90
56512;DHT22;42408;53.238;5.686;2023-04-25T12:25:06;13.70;99.90
56512;DHT22;42408;53.238;5.686;2023-04-25T12:27:32;13.60;99.90
56512;DHT22;42408;53.238;5.686;2023-04-25T12:29:59;13.60;99.90
56512;DHT22;42408;53.238;5.686;2023-04-25T12:32:25;13.70;99.90
56512;DHT22;42408;53.238;5.686;2023-04-25T12:34:51;13.60;99.90
56512;DHT22;42408;53.238;5.686;2023-04-25T12:37:17;13.50;99.90
56512;DHT22;42408;53.238;5.686;2023-04-25T12:39:43;13.30;99.90
56512;DHT22;42408;53.238;5.686;2023-04-25T12:42:08;13.30;99.90
56512;DHT22;42408;53.238;5.686;2023-04-25T12:44:37;13.30;99.90
56512;DHT22;42408;53.238;5.686;2023-04-25T12:47:03;13.40;99.90
56512;DHT22;42408;53.238;5.686;2023-04-25T12:49:29;13.60;99.90
56512;DHT22;42408;53.238;5.686;2023-04-25T12:51:55;13.50;99.90
56512;DHT22;42408;53.238;5.686;2023-04-25T12:54:20;13.50;99.90
56512;DHT22;42408;53.238;5.686;2023-04-25T12:56:46;13.30;99.90
56512;DHT22;42408;53.238;5.686;2023-04-25T12:59:12;13.30;99.90
56512;DHT22;42408;53.238;5.686;2023-04-25T13:01:38;13.40;99.90
56512;DHT22;42408;53.238;5.686;2023-04-25T13:04:04;13.40;99.90
56512;DHT22;42408;53.238;5.686;2023-04-25T13:06:29;13.40;99.90
56512;DHT22;42408;53.238;5.686;2023-04-25T13:08:56;13.40;99.90
56512;DHT22;42408;53.238;5.686;2023-04-25T13:11:22;13.40;99.90
56512;DHT22;42408;53.238;5.686;2023-04-25T13:13:47;13.30;99.90
56512;DHT22;42408;53.238;5.686;2023-04-25T13:16:13;13.20;99.90
56512;DHT22;42408;53.238;5.686;2023-04-25T13:18:40;13.30;99.90
56512;DHT22;42408;53.238;5.686;2023-04-25T13:21:06;13.50;99.90
56512;DHT22;42408;53.238;5.686;2023-04-25T13:23:31;13.40;99.90
56512;DHT22;42408;53.238;5.686;2023-04-25T13:25:57;13.40;99.90
56512;DHT22;42408;53.238;5.686;2023-04-25T13:28:24;13.40;99.90
56512;DHT22;42408;53.238;5.686;2023-04-25T13:30:50;13.30;99.90
56512;DHT22;42408;53.238;5.686;2023-04-25T13:33:17;13.30;99.90
56512;DHT22;42408;53.238;5.686;2023-04-25T13:35:43;13.20;99.90
56512;DHT22;42408;53.238;5.686;2023-04-25T13:38:08;13.40;99.90
56512;DHT22;42408;53.238;5.686;2023-04-25T13:40:35;13.50;99.90
56512;DHT22;42408;53.238;5.686;2023-04-25T13:43:01;13.20;99.90
56512;DHT22;42408;53.238;5.686;2023-04-25T13:45:27;13.00;99.90
56512;DHT22;42408;53.238;5.686;2023-04-25T13:47:52;12.60;99.90
56512;DHT22;42408;53.238;5.686;2023-04-25T13:50:18;12.30;99.90
56512;DHT22;42408;53.238;5.686;2023-04-25T13:52:44;11.90;99.90
56512;DHT22;42408;53.238;5.686;2023-04-25T13:55:10;11.80;99.90
56512;DHT22;42408;53.238;5.686;2023-04-25T13:57:37;11.80;99.90
56512;DHT22;42408;53.238;5.686;2023-04-25T14:00:04;11.90;99.90
56512;DHT22;42408;53.238;5.686;2023-04-25T14:02:35;11.90;99.90
56512;DHT22;42408;53.238;5.686;2023-04-25T14:05:01;12.10;99.90
56512;DHT22;42408;53.238;5.686;2023-04-25T14:07:27;12.20;99.90
56512;DHT22;42408;53.238;5.686;2023-04-25T14:09:52;12.20;99.90
56512;DHT22;42408;53.238;5.686;2023-04-25T14:12:18;12.40;99.90
56512;DHT22;42408;53.238;5.686;2023-04-25T14:14:44;12.40;99.90
56512;DHT22;42408;53.238;5.686;2023-04-25T14:17:09;12.40;99.90
56512;DHT22;42408;53.238;5.686;2023-04-25T14:19:35;12.20;99.90
56512;DHT22;42408;53.238;5.686;2023-04-25T14:22:03;12.00;99.90
56512;DHT22;42408;53.238;5.686;2023-04-25T14:24:28;11.70;99.90
56512;DHT22;42408;53.238;5.686;2023-04-25T14:26:54;11.60;99.90
56512;DHT22;42408;53.238;5.686;2023-04-25T14:29:20;11.40;99.90
56512;DHT22;42408;53.238;5.686;2023-04-25T14:31:45;11.50;99.90
56512;DHT22;42408;53.238;5.686;2023-04-25T14:34:11;11.50;99.90
56512;DHT22;42408;53.238;5.686;2023-04-25T14:36:37;11.40;99.90
56512;DHT22;42408;53.238;5.686;2023-04-25T14:39:03;11.50;99.90
56512;DHT22;42408;53.238;5.686;2023-04-25T14:41:30;11.70;99.90
56512;DHT22;42408;53.238;5.686;2023-04-25T14:43:55;11.80;99.90
56512;DHT22;42408;53.238;5.686;2023-04-25T14:46:22;11.90;99.90
56512;DHT22;42408;53.238;5.686;2023-04-25T14:48:49;11.80;99.90
56512;DHT22;42408;53.238;5.686;2023-04-25T14:51:14;11.60;99.90
56512;DHT22;42408;53.238;5.686;2023-04-25T14:53:41;11.50;99.90
56512;DHT22;42408;53.238;5.686;2023-04-25T14:56:06;11.60;99.90
56512;DHT22;42408;53.238;5.686;2023-04-25T14:58:33;11.50;99.90
56512;DHT22;42408;53.238;5.686;2023-04-25T15:00:59;11.30;99.90
56512;DHT22;42408;53.238;5.686;2023-04-25T15:03:25;11.10;99.90
56512;DHT22;42408;53.238;5.686;2023-04-25T15:05:51;10.90;99.90
56512;DHT22;42408;53.238;5.686;2023-04-25T15:08:17;10.80;99.90
56512;DHT22;42408;53.238;5.686;2023-04-25T15:10:44;10.70;99.90
56512;DHT22;42408;53.238;5.686;2023-04-25T15:13:10;10.60;99.90
56512;DHT22;42408;53.238;5.686;2023-04-25T15:15:36;10.50;99.90
56512;DHT22;42408;53.238;5.686;2023-04-25T15:18:02;10.30;99.90
56512;DHT22;42408;53.238;5.686;2023-04-25T15:20:27;10.40;99.90
56512;DHT22;42408;53.238;5.686;2023-04-25T15:22:53;10.40;99.90
56512;DHT22;42408;53.238;5.686;2023-04-25T15:25:19;10.40;99.90
56512;DHT22;42408;53.238;5.686;2023-04-25T15:27:45;10.60;99.90
56512;DHT22;42408;53.238;5.686;2023-04-25T15:30:15;10.70;99.90
56512;DHT22;42408;53.238;5.686;2023-04-25T15:32:42;10.60;99.90
56512;DHT22;42408;53.238;5.686;2023-04-25T15:35:08;10.60;99.90
56512;DHT22;42408;53.238;5.686;2023-04-25T15:37:35;10.60;99.90
56512;DHT22;42408;53.238;5.686;2023-04-25T15:42:44;10.60;99.90
56512;DHT22;42408;53.238;5.686;2023-04-25T15:45:14;10.60;99.90
56512;DHT22;42408;53.238;5.686;2023-04-25T15:47:41;10.60;99.90
56512;DHT22;42408;53.238;5.686;2023-04-25T15:50:08;10.60;99.90